createdAt,value
2017-06-11T00:01:56.369Z,95450.23
2017-06-11T00:04:24.335Z,95450.86
2017-06-11T00:06:51.966Z,95447.52
2017-06-11T00:09:19.656Z,95447.31
2017-06-11T00:11:49.394Z,95453.97
2017-06-11T00:14:17.003Z,95419.91
2017-06-11T00:16:44.572Z,95433.17
2017-06-11T00:19:12.097Z,95437.30
2017-06-11T00:21:39.938Z,95440.82
2017-06-11T00:24:07.506Z,95448.29
2017-06-11T00:26:35.053Z,95440.27
2017-06-11T00:29:02.587Z,95436.13
2017-06-11T00:31:30.181Z,95435.55
2017-06-11T00:33:57.718Z,95440.28
2017-06-11T00:36:25.257Z,95438.31
2017-06-11T00:38:52.837Z,95435.98
2017-06-11T00:41:20.376Z,95426.55
2017-06-11T00:43:47.915Z,95427.56
2017-06-11T00:46:15.509Z,95427.77
2017-06-11T00:48:43.049Z,95422.28
2017-06-11T00:51:10.586Z,95430.23
2017-06-11T00:53:38.162Z,95423.01
2017-06-11T00:56:05.698Z,95421.88
2017-06-11T00:58:33.590Z,95414.25
2017-06-11T01:01:01.182Z,95417.97
2017-06-11T01:03:28.718Z,95414.05
2017-06-11T01:05:56.249Z,95407.76
2017-06-11T01:08:23.822Z,95416.33
2017-06-11T01:10:51.365Z,95418.24
2017-06-11T01:13:18.914Z,95414.34
2017-06-11T01:15:46.482Z,95415.33
2017-06-11T01:18:14.012Z,95414.38
2017-06-11T01:20:41.542Z,95412.48
2017-06-11T01:23:09.138Z,95408.92
2017-06-11T01:25:36.694Z,95408.48
2017-06-11T01:28:04.271Z,95416.55
2017-06-11T01:30:31.963Z,95418.63
2017-06-11T01:32:59.496Z,95411.94
2017-06-11T01:35:27.047Z,95422.05
2017-06-11T01:37:54.628Z,95415.11
2017-06-11T01:40:22.159Z,95413.52
2017-06-11T01:42:49.712Z,95404.03
2017-06-11T01:45:17.302Z,95411.24
2017-06-11T01:47:44.838Z,95413.97
2017-06-11T01:50:12.379Z,95410.98
2017-06-11T01:52:39.970Z,95412.03
2017-06-11T01:55:07.505Z,95414.93
2017-06-11T01:57:35.033Z,95411.81
2017-06-11T02:00:02.597Z,95412.93
2017-06-11T02:02:30.520Z,95411.21
2017-06-11T02:04:58.318Z,95413.97
2017-06-11T02:07:25.852Z,95417.98
2017-06-11T02:09:53.423Z,95415.09
2017-06-11T02:12:20.958Z,95416.27
2017-06-11T02:14:48.498Z,95430.41
2017-06-11T02:17:16.066Z,95439.31
2017-06-11T02:19:43.598Z,95450.32
2017-06-11T02:22:11.132Z,95454.38
2017-06-11T02:24:38.711Z,95455.91
2017-06-11T02:27:06.254Z,95460.48
2017-06-11T02:29:34.378Z,95470.45
2017-06-11T02:32:02.078Z,95482.98
2017-06-11T02:34:29.623Z,95478.67
2017-06-11T02:36:57.157Z,95469.12
2017-06-11T02:39:24.723Z,95478.80
2017-06-11T02:41:52.261Z,95483.52
2017-06-11T02:44:19.800Z,95485.05
2017-06-11T02:46:47.396Z,95500.50
2017-06-11T02:49:14.938Z,95504.52
2017-06-11T02:51:42.486Z,95516.58
2017-06-11T02:54:10.054Z,95524.89
2017-06-11T02:56:37.589Z,95536.41
2017-06-11T02:59:05.129Z,95546.11
2017-06-11T03:01:32.711Z,95549.09
2017-06-11T03:04:00.245Z,95554.97
2017-06-11T03:06:27.777Z,95565.27
2017-06-11T03:08:55.352Z,95573.02
2017-06-11T03:11:22.927Z,95528.20
2017-06-11T03:13:50.466Z,95576.05
2017-06-11T03:16:18.030Z,95574.17
2017-06-11T03:18:45.580Z,95585.08
2017-06-11T03:21:13.110Z,95593.45
2017-06-11T03:23:40.678Z,95593.74
2017-06-11T03:26:08.206Z,95606.33
2017-06-11T03:28:35.743Z,95609.69
2017-06-11T03:31:03.330Z,95614.33
2017-06-11T03:33:30.893Z,95617.21
2017-06-11T03:35:58.428Z,95619.34
2017-06-11T03:38:25.997Z,95621.30
2017-06-11T03:40:53.551Z,95613.03
2017-06-11T03:43:21.157Z,95616.20
2017-06-11T03:45:48.719Z,95611.36
2017-06-11T03:48:16.259Z,95613.58
2017-06-11T03:50:43.789Z,95611.94
2017-06-11T03:53:11.362Z,95608.91
2017-06-11T03:55:38.901Z,95598.67
2017-06-11T03:58:06.434Z,95592.97
2017-06-11T04:00:34.011Z,95569.34
2017-06-11T04:03:01.539Z,95581.72
2017-06-11T04:05:29.074Z,95586.73
2017-06-11T04:07:56.664Z,95584.93
2017-06-11T04:10:24.214Z,95589.84
2017-06-11T04:12:51.750Z,95587.91
2017-06-11T04:15:19.313Z,95586.25
2017-06-11T04:17:46.921Z,95583.08
2017-06-11T04:20:14.452Z,95585.80
2017-06-11T04:22:42.013Z,95583.38
2017-06-11T04:25:09.545Z,95583.20
2017-06-11T04:27:37.094Z,95590.43
2017-06-11T04:30:07.036Z,95585.67
2017-06-11T04:32:34.570Z,95590.73
2017-06-11T04:35:02.109Z,95589.03
2017-06-11T04:37:29.669Z,95601.32
2017-06-11T04:39:57.210Z,95595.06
2017-06-11T04:42:24.777Z,95598.72
2017-06-11T04:44:52.348Z,95594.17
2017-06-11T04:47:19.894Z,95598.50
2017-06-11T04:49:47.430Z,95600.98
2017-06-11T04:52:15.010Z,95601.50
2017-06-11T04:54:42.562Z,95604.14
2017-06-11T04:57:10.106Z,95602.83
2017-06-11T04:59:37.686Z,95599.88
2017-06-11T05:02:05.287Z,95602.55
2017-06-11T05:04:32.828Z,95601.63
2017-06-11T05:07:00.370Z,95606.58
2017-06-11T05:09:27.957Z,95598.53
2017-06-11T05:11:55.494Z,95593.48
2017-06-11T05:14:23.202Z,95586.31
2017-06-11T05:16:50.774Z,95580.95
2017-06-11T05:19:18.317Z,95572.45
2017-06-11T05:21:45.873Z,95582.03
2017-06-11T05:24:13.446Z,95587.72
2017-06-11T05:26:40.986Z,95584.38
2017-06-11T05:29:08.521Z,95583.22
2017-06-11T05:31:36.135Z,95584.70
2017-06-11T05:34:03.698Z,95563.95
2017-06-11T05:36:31.238Z,95587.95
2017-06-11T05:38:58.815Z,95585.61
2017-06-11T05:41:26.347Z,95582.47
2017-06-11T05:43:53.885Z,95584.09
2017-06-11T05:46:21.479Z,95592.40
2017-06-11T05:48:49.019Z,95596.60
2017-06-11T05:51:16.603Z,95601.59
2017-06-11T05:53:44.174Z,95602.50
2017-06-11T05:56:11.709Z,95611.19
2017-06-11T05:58:39.267Z,95614.75
2017-06-11T06:01:06.838Z,95611.49
2017-06-11T06:03:34.421Z,95616.00
2017-06-11T06:06:01.962Z,95609.63
2017-06-11T06:08:29.538Z,95621.81
2017-06-11T06:10:57.083Z,95626.37
2017-06-11T06:13:24.611Z,95647.11
2017-06-11T06:15:52.189Z,95633.63
2017-06-11T06:18:19.723Z,95631.89
2017-06-11T06:20:47.250Z,95642.63
2017-06-11T06:23:14.809Z,95647.35
2017-06-11T06:25:42.332Z,95647.90
2017-06-11T06:28:09.872Z,95650.48
2017-06-11T06:30:37.454Z,95656.38
2017-06-11T06:33:04.994Z,95656.05
2017-06-11T06:35:32.528Z,95651.53
2017-06-11T06:38:00.103Z,95656.94
2017-06-11T06:40:27.636Z,95665.05
2017-06-11T06:42:55.169Z,95663.50
2017-06-11T06:45:22.760Z,95656.58
2017-06-11T06:47:50.516Z,95642.44
2017-06-11T06:50:18.127Z,95638.95
2017-06-11T06:52:45.789Z,95639.58
2017-06-11T06:55:13.573Z,95640.89
2017-06-11T06:57:41.106Z,95642.38
2017-06-11T07:00:08.791Z,95644.30
2017-06-11T07:02:36.328Z,95644.08
2017-06-11T07:05:03.915Z,95643.94
2017-06-11T07:07:31.550Z,95649.67
2017-06-11T07:09:59.082Z,95648.78
2017-06-11T07:12:27.285Z,95653.12
2017-06-11T07:14:54.890Z,95656.05
2017-06-11T07:17:22.429Z,95661.95
2017-06-11T07:19:49.966Z,95666.90
2017-06-11T07:22:17.552Z,95667.25
2017-06-11T07:24:45.083Z,95663.48
2017-06-11T07:27:12.619Z,95665.17
2017-06-11T07:29:40.686Z,95671.44
2017-06-11T07:32:08.274Z,95666.91
2017-06-11T07:34:36.186Z,95663.22
2017-06-11T07:37:03.726Z,95659.13
2017-06-11T07:39:31.304Z,95652.54
2017-06-11T07:41:59.450Z,95661.30
2017-06-11T07:44:26.982Z,95638.86
2017-06-11T07:46:54.914Z,95654.87
2017-06-11T07:49:22.450Z,95652.02
2017-06-11T07:51:49.985Z,95648.88
2017-06-11T07:54:17.961Z,95646.22
2017-06-11T07:56:45.884Z,95649.48
2017-06-11T07:59:13.784Z,95647.02
2017-06-11T08:01:41.345Z,95648.94
2017-06-11T08:04:09.338Z,95626.53
2017-06-11T08:06:36.879Z,95650.50
2017-06-11T08:09:04.490Z,95653.59
2017-06-11T08:11:32.026Z,95650.91
2017-06-11T08:13:59.589Z,95652.55
2017-06-11T08:16:27.170Z,95663.14
2017-06-11T08:18:54.711Z,95660.23
2017-06-11T08:21:22.556Z,95665.09
2017-06-11T08:23:50.257Z,95658.59
2017-06-11T08:26:17.834Z,95661.53
2017-06-11T08:28:45.378Z,95656.81
2017-06-11T08:31:12.975Z,95661.52
2017-06-11T08:33:40.532Z,95670.58
2017-06-11T08:36:09.379Z,95661.73
2017-06-11T08:38:38.144Z,95666.63
2017-06-11T08:41:05.727Z,95672.14
2017-06-11T08:43:33.273Z,95673.70
2017-06-11T08:46:01.321Z,95665.45
2017-06-11T08:48:28.899Z,95673.30
2017-06-11T08:50:56.446Z,95668.61
2017-06-11T08:53:24.110Z,95661.55
2017-06-11T08:55:53.647Z,95668.22
2017-06-11T08:58:21.758Z,95668.58
2017-06-11T09:00:49.358Z,95666.25
2017-06-11T09:03:17.392Z,95672.88
2017-06-11T09:05:46.010Z,95673.05
2017-06-11T09:08:13.613Z,95677.22
2017-06-11T09:10:41.294Z,95679.17
2017-06-11T09:13:08.925Z,95683.83
2017-06-11T09:15:36.844Z,95664.52
2017-06-11T09:18:04.794Z,95672.36
2017-06-11T09:20:32.345Z,95662.91
2017-06-11T09:22:59.943Z,95667.53
2017-06-11T09:25:27.686Z,95669.48
2017-06-11T09:27:55.585Z,95674.47
2017-06-11T09:30:23.162Z,95669.17
2017-06-11T09:32:50.717Z,95669.47
2017-06-11T09:35:18.260Z,95669.53
2017-06-11T09:37:46.429Z,95668.17
2017-06-11T09:40:13.970Z,95670.19
2017-06-11T09:42:41.551Z,95669.56
2017-06-11T09:45:09.137Z,95670.34
2017-06-11T09:47:36.945Z,95673.19
2017-06-11T09:50:04.491Z,95671.14
2017-06-11T09:52:32.065Z,95662.98
2017-06-11T09:54:59.611Z,95671.98
2017-06-11T09:57:27.159Z,95670.69
2017-06-11T09:59:54.745Z,95661.50
2017-06-11T10:02:22.329Z,95662.97
2017-06-11T10:04:49.879Z,95659.78
2017-06-11T10:07:17.415Z,95652.29
2017-06-11T10:09:44.990Z,95654.41
2017-06-11T10:12:12.539Z,95654.41
2017-06-11T10:14:40.101Z,95655.84
2017-06-11T10:17:07.687Z,95655.70
2017-06-11T10:19:35.320Z,95655.24
2017-06-11T10:22:02.928Z,95652.48
2017-06-11T10:24:30.530Z,95650.56
2017-06-11T10:26:58.090Z,95650.97
2017-06-11T10:29:25.633Z,95651.42
2017-06-11T10:31:53.205Z,95646.44
2017-06-11T10:34:20.767Z,95648.53
2017-06-11T10:36:48.309Z,95646.94
2017-06-11T10:39:15.882Z,95640.45
2017-06-11T10:41:43.415Z,95641.84
2017-06-11T10:44:10.981Z,95646.34
2017-06-11T10:46:38.573Z,95644.66
2017-06-11T10:49:06.113Z,95641.63
2017-06-11T10:51:33.651Z,95636.17
2017-06-11T10:54:01.245Z,95638.21
2017-06-11T10:56:28.809Z,95630.49
2017-06-11T10:58:56.345Z,95632.39
2017-06-11T11:01:23.930Z,95624.59
2017-06-11T11:03:51.466Z,95604.23
2017-06-11T11:06:19.002Z,95625.25
2017-06-11T11:08:46.625Z,95627.84
2017-06-11T11:11:14.186Z,95630.41
2017-06-11T11:13:41.734Z,95624.78
2017-06-11T11:16:09.294Z,95627.34
2017-06-11T11:18:37.293Z,95617.16
2017-06-11T11:21:04.874Z,95616.84
2017-06-11T11:23:32.450Z,95621.69
2017-06-11T11:25:59.986Z,95627.34
2017-06-11T11:28:27.538Z,95622.06
2017-06-11T11:30:55.102Z,95617.00
2017-06-11T11:33:22.657Z,95618.41
2017-06-11T11:35:50.469Z,95613.36
2017-06-11T11:38:18.043Z,95623.29
2017-06-11T11:40:45.583Z,95617.22
2017-06-11T11:43:13.346Z,95614.22
2017-06-11T11:45:40.937Z,95617.55
2017-06-11T11:48:08.477Z,95612.56
2017-06-11T11:50:36.056Z,95612.56
2017-06-11T11:53:03.631Z,95609.91
2017-06-11T11:55:31.214Z,95603.84
2017-06-11T11:57:58.758Z,95603.20
2017-06-11T12:00:26.467Z,95599.53
2017-06-11T12:02:54.062Z,95596.64
2017-06-11T12:05:21.700Z,95589.94
2017-06-11T12:07:49.325Z,95583.22
2017-06-11T12:10:17.725Z,95596.08
2017-06-11T12:12:46.010Z,95585.44
2017-06-11T12:15:13.583Z,95558.58
2017-06-11T12:17:41.122Z,95585.77
2017-06-11T12:20:08.685Z,95582.53
2017-06-11T12:22:36.288Z,95579.87
2017-06-11T12:25:03.828Z,95548.30
2017-06-11T12:27:31.373Z,95573.88
2017-06-11T12:29:58.952Z,95572.84
2017-06-11T12:32:26.927Z,95568.60
2017-06-11T12:34:54.513Z,95566.42
2017-06-11T12:37:22.056Z,95565.58
2017-06-11T12:39:49.631Z,95558.34
2017-06-11T12:42:17.170Z,95560.95
2017-06-11T12:44:44.714Z,95549.30
2017-06-11T12:47:12.302Z,95548.60
2017-06-11T12:49:39.830Z,95543.66
2017-06-11T12:52:07.380Z,95541.31
2017-06-11T12:54:34.966Z,95536.03
2017-06-11T12:57:02.489Z,95526.52
2017-06-11T12:59:30.061Z,95540.03
2017-06-11T13:01:57.635Z,95536.19
2017-06-11T13:04:25.168Z,95534.41
2017-06-11T13:06:52.698Z,95537.16
2017-06-11T13:09:20.290Z,95525.94
2017-06-11T13:11:48.424Z,95527.05
2017-06-11T13:14:17.978Z,95524.92
2017-06-11T13:16:45.894Z,95523.14
2017-06-11T13:19:13.562Z,95522.20
2017-06-11T13:21:41.118Z,95513.66
2017-06-11T13:24:08.681Z,95519.63
2017-06-11T13:26:36.246Z,95518.81
2017-06-11T13:29:03.785Z,95515.62
2017-06-11T13:31:31.354Z,95516.55
2017-06-11T13:33:58.889Z,95432.77
2017-06-11T13:36:26.417Z,95515.89
2017-06-11T13:38:54.009Z,95511.77
2017-06-11T13:41:21.543Z,95505.91
2017-06-11T13:43:49.075Z,95505.19
2017-06-11T13:46:16.670Z,95507.72
2017-06-11T13:48:44.289Z,95510.08
2017-06-11T13:51:11.814Z,95511.13
2017-06-11T13:53:39.394Z,95501.28
2017-06-11T13:56:06.931Z,95505.30
2017-06-11T13:58:34.474Z,95507.20
2017-06-11T14:01:02.046Z,95512.37
2017-06-11T14:03:29.635Z,95509.69
2017-06-11T14:05:57.199Z,95510.41
2017-06-11T14:08:24.801Z,95510.56
2017-06-11T14:10:54.078Z,95515.14
2017-06-11T14:13:21.901Z,95508.35
2017-06-11T14:15:49.483Z,95511.03
2017-06-11T14:18:17.245Z,95504.48
2017-06-11T14:20:44.777Z,95506.48
2017-06-11T14:23:12.374Z,95505.33
2017-06-11T14:25:39.933Z,95511.60
2017-06-11T14:28:08.269Z,95505.95
2017-06-11T14:30:35.837Z,95503.66
2017-06-11T14:33:03.382Z,95509.53
2017-06-11T14:35:30.923Z,95506.89
2017-06-11T14:37:58.497Z,95505.66
2017-06-11T14:40:26.134Z,95513.53
2017-06-11T14:42:53.688Z,95511.67
2017-06-11T14:45:21.266Z,95509.79
2017-06-11T14:47:49.104Z,95487.99
2017-06-11T14:50:16.646Z,95510.24
2017-06-11T14:52:44.301Z,95510.42
2017-06-11T14:55:11.830Z,95508.70
2017-06-11T14:57:39.369Z,95510.63
2017-06-11T15:00:07.603Z,95506.03
2017-06-11T15:02:36.146Z,95501.52
2017-06-11T15:05:03.689Z,95504.81
2017-06-11T15:07:31.283Z,95507.62
2017-06-11T15:09:59.219Z,95511.13
2017-06-11T15:12:37.272Z,95505.25
2017-06-11T15:15:08.561Z,95506.77
2017-06-11T15:28:47.314Z,95517.09
2017-06-11T15:31:15.153Z,95510.45
2017-06-11T15:33:42.685Z,95511.67
2017-06-11T15:36:35.180Z,95510.58
2017-06-11T15:41:56.311Z,95519.27
2017-06-11T15:44:23.869Z,95510.86
2017-06-11T15:46:51.413Z,95491.20
2017-06-11T15:49:18.985Z,95512.55
2017-06-11T15:51:46.532Z,95514.06
2017-06-11T15:54:14.061Z,95508.36
2017-06-11T15:56:45.822Z,95506.73
2017-06-11T15:59:19.473Z,95502.56
2017-06-11T16:02:01.559Z,95513.01
2017-06-11T16:04:36.929Z,95509.86
2017-06-11T16:07:20.205Z,95514.44
2017-06-11T16:09:48.574Z,95519.94
2017-06-11T16:12:27.959Z,95513.88
2017-06-11T16:15:14.166Z,95511.23
2017-06-11T16:17:48.958Z,95518.64
2017-06-11T16:20:25.586Z,95530.09
2017-06-11T16:22:55.897Z,95526.27
2017-06-11T16:25:33.891Z,95527.95
2017-06-11T16:28:05.147Z,95531.55
2017-06-11T16:30:32.894Z,95538.27
2017-06-11T16:33:00.437Z,95544.48
2017-06-11T16:35:28.550Z,95545.66
2017-06-11T16:38:03.427Z,95550.43
2017-06-11T16:40:31.091Z,95549.41
2017-06-11T16:43:00.009Z,95549.08
2017-06-11T16:45:39.868Z,95562.62
2017-06-11T16:50:54.838Z,95562.29
2017-06-11T16:53:26.138Z,95562.50
2017-06-11T16:58:37.309Z,95564.26
2017-06-11T17:01:06.861Z,95568.02
2017-06-11T17:03:38.982Z,95564.10
2017-06-11T17:06:07.404Z,95562.92
2017-06-11T17:08:41.563Z,95568.81
2017-06-11T17:11:19.762Z,95569.59
2017-06-11T17:13:48.682Z,95569.02
2017-06-11T17:16:20.716Z,95583.52
2017-06-11T17:18:49.489Z,95576.66
2017-06-11T17:21:18.066Z,95579.20
2017-06-11T17:23:46.553Z,95578.99
2017-06-11T17:26:14.171Z,95579.77
2017-06-11T17:28:42.221Z,95577.45
2017-06-11T17:31:12.530Z,95584.70
2017-06-11T17:33:45.902Z,95582.73
2017-06-11T17:36:13.677Z,95583.12
2017-06-11T17:38:41.310Z,95583.33
2017-06-11T17:44:01.642Z,95589.93
2017-06-11T17:46:33.128Z,95600.72
2017-06-11T17:51:46.937Z,95596.83
2017-06-11T17:54:14.740Z,95602.11
2017-06-11T17:56:42.432Z,95600.55
2017-06-11T17:59:10.804Z,95606.19
2017-06-11T18:01:38.415Z,95605.84
2017-06-11T18:04:05.990Z,95618.60
2017-06-11T18:06:33.601Z,95616.23
2017-06-11T18:09:01.766Z,95613.45
2017-06-11T18:11:29.340Z,95613.63
2017-06-11T18:13:56.913Z,95615.22
2017-06-11T18:16:29.372Z,95617.77
2017-06-11T18:18:58.286Z,95621.13
2017-06-11T18:21:26.205Z,95623.68
2017-06-11T18:23:54.724Z,95625.20
2017-06-11T18:26:22.364Z,95638.52
2017-06-11T18:28:49.914Z,95638.89
2017-06-11T18:31:22.331Z,95632.64
2017-06-11T18:33:52.432Z,95645.34
2017-06-11T18:36:21.770Z,95639.48
2017-06-11T18:38:52.344Z,95634.66
2017-06-11T18:41:27.158Z,95638.92
2017-06-11T18:43:58.217Z,95637.35
2017-06-11T18:46:29.056Z,95634.43
2017-06-11T18:51:57.277Z,95630.34
2017-06-11T18:54:29.030Z,95625.61
2017-06-11T19:02:20.010Z,95643.91
2017-06-11T19:04:48.206Z,95633.37
2017-06-11T19:07:16.085Z,95629.90
2017-06-11T19:09:43.736Z,95641.43
2017-06-11T19:12:12.199Z,95642.23
2017-06-11T19:14:39.787Z,95652.47
2017-06-11T19:17:07.666Z,95652.07
2017-06-11T19:19:35.255Z,95650.78
2017-06-11T19:22:09.709Z,95655.66
2017-06-11T19:24:41.560Z,95653.79
2017-06-11T19:27:09.115Z,95660.48
2017-06-11T19:37:57.388Z,95656.25
2017-06-11T19:40:33.798Z,95658.59
2017-06-11T19:43:23.956Z,95659.75
2017-06-11T19:46:00.425Z,95658.89
2017-06-11T19:48:35.210Z,95660.45
2017-06-11T19:53:45.921Z,95669.95
2017-06-11T19:56:18.283Z,95659.97
2017-06-11T19:58:57.522Z,95662.53
2017-06-11T20:01:36.667Z,95659.38
2017-06-11T20:04:14.358Z,95670.35
2017-06-11T20:09:59.035Z,95668.59
2017-06-11T20:12:26.661Z,95668.79
2017-06-11T20:14:54.218Z,95666.45
2017-06-11T20:17:21.992Z,95664.27
2017-06-11T20:19:49.574Z,95674.26
2017-06-11T20:22:17.342Z,95670.55
2017-06-11T20:24:44.918Z,95679.95
2017-06-11T20:27:16.554Z,95681.52
2017-06-11T20:29:45.341Z,95690.73
2017-06-11T20:32:13.874Z,95688.55
2017-06-11T20:34:41.835Z,95683.02
2017-06-11T20:37:09.402Z,95684.95
2017-06-11T20:39:36.993Z,95681.16
2017-06-11T20:42:04.553Z,95689.83
2017-06-11T20:44:33.769Z,95682.02
2017-06-11T20:47:04.698Z,95679.66
2017-06-11T20:49:38.149Z,95679.66
2017-06-11T20:52:24.321Z,95675.52
2017-06-11T20:54:59.748Z,95672.89
2017-06-11T20:57:27.345Z,95681.64
2017-06-11T20:59:54.893Z,95680.12
2017-06-11T21:02:39.478Z,95668.88
2017-06-11T21:05:08.762Z,95691.53
2017-06-11T21:07:59.421Z,95691.00
2017-06-11T21:10:40.256Z,95693.73
2017-06-11T21:13:08.047Z,95678.80
2017-06-11T21:15:36.893Z,95698.17
2017-06-11T21:18:19.663Z,95705.63
2017-06-11T21:20:47.631Z,95705.88
2017-06-11T21:23:15.167Z,95642.11
2017-06-11T21:25:42.745Z,95700.36
2017-06-11T21:28:12.003Z,95696.64
2017-06-11T21:31:11.766Z,95705.36
2017-06-11T21:33:39.315Z,95692.66
2017-06-11T21:36:07.129Z,95700.21
2017-06-11T21:38:34.934Z,95690.41
2017-06-11T21:41:02.492Z,95694.48
2017-06-11T21:43:30.149Z,95693.31
2017-06-11T21:45:57.731Z,95671.23
2017-06-11T21:48:25.407Z,95696.89
2017-06-11T21:50:52.981Z,95688.28
2017-06-11T21:53:21.309Z,95680.92
2017-06-11T21:55:48.904Z,95684.89
2017-06-11T21:58:17.345Z,95680.71
2017-06-11T22:00:44.952Z,95680.86
2017-06-11T22:03:12.822Z,95678.86
2017-06-11T22:05:40.589Z,95675.16
2017-06-11T22:08:08.345Z,95683.91
2017-06-11T22:10:36.005Z,95684.84
2017-06-11T22:13:04.253Z,95684.70
2017-06-11T22:15:32.025Z,95684.31
2017-06-11T22:18:00.045Z,95684.52
2017-06-11T22:20:27.618Z,95688.63
2017-06-11T22:22:55.255Z,95694.64
2017-06-11T22:25:22.834Z,95690.70
2017-06-11T22:27:50.458Z,95687.03
2017-06-11T22:30:19.006Z,95683.99
2017-06-11T22:32:46.581Z,95680.28
2017-06-11T22:35:14.142Z,95688.09
2017-06-11T22:37:41.846Z,95684.16
2017-06-11T22:40:09.456Z,95686.02
2017-06-11T22:42:37.136Z,95685.89
2017-06-11T22:45:04.772Z,95682.47
2017-06-11T22:47:32.322Z,95688.34
2017-06-11T22:49:59.871Z,95678.56
2017-06-11T22:52:27.454Z,95681.41
2017-06-11T22:54:54.988Z,95681.80
2017-06-11T22:57:22.531Z,95681.44
2017-06-11T22:59:50.116Z,95689.16
2017-06-11T23:02:17.780Z,95686.47
2017-06-11T23:04:45.347Z,95691.43
2017-06-11T23:07:12.885Z,95695.19
2017-06-11T23:09:40.465Z,95695.81
2017-06-11T23:12:08.068Z,95697.23
2017-06-11T23:14:35.627Z,95694.12
2017-06-11T23:17:03.206Z,95690.98
2017-06-11T23:19:30.741Z,95693.13
2017-06-11T23:21:58.282Z,95686.77
2017-06-11T23:24:25.891Z,95698.96
2017-06-11T23:26:53.443Z,95698.48
2017-06-11T23:29:21.082Z,95692.30
2017-06-11T23:31:48.728Z,95697.49
2017-06-11T23:34:16.291Z,95691.59
2017-06-11T23:36:43.933Z,95689.78
2017-06-11T23:39:11.622Z,95689.67
2017-06-11T23:41:39.186Z,95692.53
2017-06-11T23:44:06.753Z,95692.81
2017-06-11T23:46:34.454Z,95685.44
2017-06-11T23:49:02.152Z,95687.27
2017-06-11T23:51:29.815Z,95692.90
2017-06-11T23:53:57.441Z,95696.02
2017-06-11T23:56:25.261Z,95698.91
2017-06-11T23:58:52.841Z,95697.89
